createdAt,value
2023-02-11T00:00:43.103Z,102376.50
2023-02-11T00:03:09.921Z,102368.52
2023-02-11T00:05:36.732Z,102360.33
2023-02-11T00:08:03.696Z,102343.63
2023-02-11T00:10:30.273Z,102345.66
2023-02-11T00:12:57.422Z,102343.76
2023-02-11T00:15:24.073Z,102346.48
2023-02-11T00:17:50.600Z,102366.30
2023-02-11T00:20:17.268Z,102376.68
2023-02-11T00:22:43.881Z,102385.48
2023-02-11T00:25:10.484Z,102362.42
2023-02-11T00:27:37.773Z,102364.17
2023-02-11T00:30:05.319Z,102366.77
2023-02-11T00:32:32.214Z,102365.29
2023-02-11T00:34:58.923Z,102365.59
2023-02-11T00:37:25.622Z,102356.54
2023-02-11T00:39:52.386Z,102355.17
2023-02-11T00:42:19.094Z,102367.79
2023-02-11T00:44:45.896Z,102374.59
2023-02-11T00:47:12.713Z,102373.32
2023-02-11T00:49:40.466Z,102375.91
2023-02-11T00:52:07.184Z,102379.80
2023-02-11T00:54:34.058Z,102375.94
2023-02-11T00:57:00.633Z,102383.15
2023-02-11T00:59:27.446Z,102393.23
2023-02-11T01:01:54.253Z,102383.41
2023-02-11T01:04:20.868Z,102386.65
2023-02-11T01:06:47.896Z,102392.29
2023-02-11T01:09:14.489Z,102386.84
2023-02-11T01:11:41.198Z,102379.42
2023-02-11T01:14:08.349Z,102369.89
2023-02-11T01:16:35.341Z,102374.62
2023-02-11T01:19:02.191Z,102367.20
2023-02-11T01:21:29.021Z,102365.29
2023-02-11T01:23:55.936Z,102359.49
2023-02-11T01:26:22.645Z,102357.66
2023-02-11T01:28:49.310Z,102361.00
2023-02-11T01:31:16.317Z,102348.59
2023-02-11T01:33:43.349Z,102331.23
2023-02-11T01:36:11.939Z,102337.98
2023-02-11T01:38:40.038Z,102326.61
2023-02-11T01:41:10.517Z,102318.29
2023-02-11T01:43:47.969Z,102331.17
2023-02-11T01:46:31.491Z,102328.46
2023-02-11T01:49:04.625Z,102309.61
2023-02-11T01:51:39.422Z,102298.17
2023-02-11T01:54:28.265Z,102294.22
2023-02-11T01:57:30.139Z,102281.11
2023-02-11T02:00:10.331Z,102271.32
2023-02-11T02:02:51.966Z,102261.62
2023-02-11T02:06:01.773Z,102257.17
2023-02-11T02:08:50.198Z,102256.66
2023-02-11T02:11:17.437Z,102256.66
2023-02-11T02:13:44.710Z,102260.58
2023-02-11T02:16:14.107Z,102257.70
2023-02-11T02:19:18.242Z,102266.88
2023-02-11T02:21:54.076Z,102266.95
2023-02-11T02:24:58.915Z,102278.89
2023-02-11T02:27:59.716Z,102280.55
2023-02-11T02:30:50.976Z,102286.80
2023-02-11T02:33:25.373Z,102280.90
2023-02-11T02:35:55.538Z,102274.71
2023-02-11T02:38:31.500Z,102284.02
2023-02-11T02:41:10.291Z,102274.98
2023-02-11T02:43:41.034Z,102276.15
2023-02-11T02:46:16.236Z,102266.21
2023-02-11T02:48:43.946Z,102258.11
2023-02-11T02:51:22.636Z,102251.17
2023-02-11T02:54:02.127Z,102249.17
2023-02-11T02:56:46.194Z,102245.31
2023-02-11T02:59:26.491Z,102240.50
2023-02-11T03:02:11.040Z,102239.99
2023-02-11T03:04:52.024Z,102239.23
2023-02-11T03:07:34.152Z,102235.69
2023-02-11T03:10:08.150Z,102241.80
2023-02-11T03:12:35.837Z,102240.16
2023-02-11T03:15:06.858Z,102240.24
2023-02-11T03:17:36.100Z,102229.35
2023-02-11T03:20:04.935Z,102219.31
2023-02-11T03:22:48.678Z,102222.82
2023-02-11T03:25:16.085Z,102218.11
2023-02-11T03:27:57.661Z,102222.68
2023-02-11T03:30:44.912Z,102215.90
2023-02-11T03:33:22.390Z,102203.39
2023-02-11T03:36:00.370Z,102196.85
2023-02-11T03:38:33.673Z,102200.07
2023-02-11T03:41:03.145Z,102202.15
2023-02-11T03:43:42.300Z,102200.10
2023-02-11T03:46:11.248Z,102203.13
2023-02-11T03:48:44.868Z,102203.56
2023-02-11T03:51:13.629Z,102208.33
2023-02-11T03:53:43.460Z,102211.30
2023-02-11T03:56:16.901Z,102220.50
2023-02-11T03:58:47.938Z,102220.97
2023-02-11T04:01:15.168Z,102225.34
2023-02-11T04:03:42.521Z,102218.98
2023-02-11T04:06:09.628Z,102222.31
2023-02-11T04:08:36.812Z,102220.70
2023-02-11T04:11:03.649Z,102222.45
2023-02-11T04:13:30.718Z,102228.65
2023-02-11T04:15:57.574Z,102237.92
2023-02-11T04:18:24.565Z,102227.64
2023-02-11T04:20:51.475Z,102233.20
2023-02-11T04:23:18.693Z,102219.08
2023-02-11T04:25:45.656Z,102227.03
2023-02-11T04:28:12.657Z,102230.59
2023-02-11T04:30:39.442Z,102224.04
2023-02-11T04:33:06.217Z,102232.87
2023-02-11T04:35:33.375Z,102230.44
2023-02-11T04:38:00.122Z,102229.23
2023-02-11T04:40:27.429Z,102225.75
2023-02-11T04:42:54.236Z,102227.76
2023-02-11T04:45:20.965Z,102224.02
2023-02-11T04:47:47.600Z,102220.63
2023-02-11T04:50:15.034Z,102226.91
2023-02-11T04:52:41.672Z,102228.68
2023-02-11T04:55:08.976Z,102222.41
2023-02-11T04:57:36.208Z,102233.27
2023-02-11T05:00:04.048Z,102226.11
2023-02-11T05:02:30.742Z,102229.05
2023-02-11T05:04:57.538Z,102230.38
2023-02-11T05:33:41.425Z,102227.05
2023-02-11T05:36:12.024Z,102224.45
2023-02-11T05:38:38.903Z,102213.91
2023-02-11T05:41:06.934Z,102210.85
2023-02-11T05:43:35.320Z,102209.53
2023-02-11T05:46:03.450Z,102208.23
2023-02-11T05:48:30.392Z,102207.38
2023-02-11T05:50:57.542Z,102210.27
2023-02-11T05:53:24.422Z,102216.33
2023-02-11T05:55:51.717Z,102218.08
2023-02-11T05:58:18.934Z,102216.70
2023-02-11T06:00:46.254Z,102216.36
2023-02-11T06:03:13.123Z,102209.13
2023-02-11T06:05:40.059Z,102212.54
2023-02-11T06:08:07.417Z,102202.30
2023-02-11T06:10:34.703Z,102202.59
2023-02-11T06:13:02.102Z,102203.94
2023-02-11T06:15:29.038Z,102204.64
2023-02-11T06:17:56.302Z,102203.45
2023-02-11T06:20:23.239Z,102203.25
2023-02-11T06:22:50.164Z,102202.38
2023-02-11T06:25:17.308Z,102202.30
2023-02-11T06:27:44.456Z,102207.83
2023-02-11T06:30:11.940Z,102206.02
2023-02-11T06:32:44.407Z,102205.61
2023-02-11T06:35:13.664Z,102202.11
2023-02-11T06:37:42.188Z,102206.52
2023-02-11T06:40:10.510Z,102206.39
2023-02-11T06:42:39.189Z,102205.45
2023-02-11T06:45:09.050Z,102212.70
2023-02-11T06:47:35.849Z,102212.30
2023-02-11T06:50:05.867Z,102213.69
2023-02-11T06:52:33.064Z,102216.68
2023-02-11T06:55:00.050Z,102221.99
2023-02-11T06:57:27.078Z,102214.67
2023-02-11T06:59:53.860Z,102217.77
2023-02-11T07:02:21.363Z,102209.65
2023-02-11T07:04:48.944Z,102210.42
2023-02-11T07:07:16.296Z,102216.55
2023-02-11T07:09:43.693Z,102218.05
2023-02-11T07:12:10.742Z,102216.73
2023-02-11T07:14:37.797Z,102222.22
2023-02-11T07:17:05.159Z,102223.04
2023-02-11T07:19:31.914Z,102221.05
2023-02-11T07:21:58.866Z,102223.95
2023-02-11T07:24:25.833Z,102218.95
2023-02-11T07:26:53.525Z,102225.05
2023-02-11T07:29:20.478Z,102216.41
2023-02-11T07:31:47.422Z,102220.87
2023-02-11T07:34:15.023Z,102224.26
2023-02-11T07:36:43.754Z,102236.70
2023-02-11T07:39:10.590Z,102229.13
2023-02-11T07:41:38.214Z,102234.11
2023-02-11T07:44:05.680Z,102233.02
2023-02-11T07:46:32.914Z,102235.02
2023-02-11T07:49:00.331Z,102238.55
2023-02-11T07:51:30.436Z,102243.73
2023-02-11T07:53:59.550Z,102244.70
2023-02-11T07:56:27.491Z,102248.70
2023-02-11T07:58:54.858Z,102250.52
2023-02-11T08:01:25.501Z,102242.12
2023-02-11T08:03:52.713Z,102236.09
2023-02-11T08:06:22.305Z,102232.39
2023-02-11T08:08:49.661Z,102236.26
2023-02-11T08:11:20.710Z,102224.40
2023-02-11T08:13:48.105Z,102226.02
2023-02-11T08:16:24.016Z,102229.40
2023-02-11T08:18:51.691Z,102229.91
2023-02-11T08:21:18.995Z,102229.65
2023-02-11T08:23:46.241Z,102234.02
2023-02-11T08:26:24.612Z,102228.90
2023-02-11T08:28:53.485Z,102236.80
2023-02-11T08:31:33.451Z,102243.55
2023-02-11T08:34:02.306Z,102248.54
2023-02-11T08:36:32.596Z,102253.17
2023-02-11T08:39:17.379Z,102252.94
2023-02-11T08:41:45.696Z,102259.59
2023-02-11T08:44:13.084Z,102256.89
2023-02-11T08:46:40.031Z,102268.06
2023-02-11T08:49:06.913Z,102266.58
2023-02-11T08:51:34.117Z,102265.67
2023-02-11T08:54:01.210Z,102267.11
2023-02-11T08:56:30.924Z,102271.62
2023-02-11T08:58:57.845Z,102275.85
2023-02-11T09:01:27.250Z,102273.30
2023-02-11T09:03:54.654Z,102274.76
2023-02-11T09:06:22.907Z,102274.12
2023-02-11T09:08:52.110Z,102282.02
2023-02-11T09:11:21.230Z,102287.77
2023-02-11T09:13:48.440Z,102276.99
2023-02-11T09:16:24.425Z,102279.02
2023-02-11T09:18:51.818Z,102278.30
2023-02-11T09:21:19.349Z,102280.73
2023-02-11T09:23:47.907Z,102277.79
2023-02-11T09:26:30.066Z,102279.81
2023-02-11T09:28:57.814Z,102301.17
2023-02-11T09:31:27.709Z,102289.13
2023-02-11T09:33:57.355Z,102296.75
2023-02-11T09:36:28.926Z,102301.95
2023-02-11T09:38:58.465Z,102299.40
2023-02-11T09:41:46.988Z,102302.56
2023-02-11T09:44:34.439Z,102314.10
2023-02-11T09:47:25.576Z,102313.27
2023-02-11T09:50:05.536Z,102326.05
2023-02-11T09:52:51.803Z,102332.68
2023-02-11T09:55:21.472Z,102344.15
2023-02-11T09:57:48.736Z,102347.05
2023-02-11T10:00:38.405Z,102350.77
2023-02-11T10:03:38.035Z,102354.58
2023-02-11T10:06:13.201Z,102343.95
2023-02-11T10:09:21.267Z,102338.75
2023-02-11T10:12:09.361Z,102348.46
2023-02-11T10:15:00.726Z,102351.44
2023-02-11T10:17:34.536Z,102356.22
2023-02-11T10:20:04.203Z,102355.02
2023-02-11T10:22:47.667Z,102352.43
2023-02-11T10:25:26.412Z,102355.32
2023-02-11T10:27:56.119Z,102351.79
2023-02-11T10:30:31.699Z,102345.35
2023-02-11T10:33:12.376Z,102347.15
2023-02-11T10:35:39.130Z,102357.05
2023-02-11T10:38:05.974Z,102353.13
2023-02-11T10:40:33.793Z,102357.86
2023-02-11T10:43:08.336Z,102363.80
2023-02-11T10:45:43.262Z,102360.58
2023-02-11T10:48:40.028Z,102358.91
2023-02-11T10:51:26.593Z,102359.34
2023-02-11T10:54:21.178Z,102371.84
2023-02-11T10:56:59.483Z,102366.13
2023-02-11T10:59:31.326Z,102361.91
2023-02-11T11:02:02.134Z,102367.09
2023-02-11T11:04:44.079Z,102352.94
2023-02-11T11:07:16.885Z,102364.73
2023-02-11T11:09:51.813Z,102361.48
2023-02-11T11:12:27.327Z,102355.49
2023-02-11T11:15:13.761Z,102366.91
2023-02-11T11:17:40.610Z,102360.52
2023-02-11T11:20:25.028Z,102359.44
2023-02-11T11:23:07.458Z,102356.99
2023-02-11T11:25:38.458Z,102356.12
2023-02-11T11:28:05.604Z,102356.34
2023-02-11T11:30:41.395Z,102356.84
2023-02-11T11:33:21.305Z,102368.98
2023-02-11T11:36:01.480Z,102369.27
2023-02-11T11:38:30.262Z,102374.43
2023-02-11T11:41:15.614Z,102369.59
2023-02-11T11:43:55.229Z,102359.44
2023-02-11T11:46:34.494Z,102360.15
2023-02-11T11:49:28.311Z,102359.61
2023-02-11T11:52:35.509Z,102358.08
2023-02-11T11:55:25.626Z,102353.70
2023-02-11T11:57:52.811Z,102357.49
2023-02-11T12:00:41.604Z,102352.71
2023-02-11T12:03:48.767Z,102350.06
2023-02-11T12:06:26.715Z,102360.27
2023-02-11T12:09:11.511Z,102359.08
2023-02-11T12:12:06.462Z,102359.83
2023-02-11T12:14:54.279Z,102356.96
2023-02-11T12:17:37.679Z,102357.05
2023-02-11T12:20:23.728Z,102362.36
2023-02-11T12:23:10.390Z,102353.80
2023-02-11T12:25:39.700Z,102356.90
2023-02-11T12:28:22.629Z,102352.55
2023-02-11T12:31:12.085Z,102357.08
2023-02-11T12:33:58.247Z,102379.86
2023-02-11T12:36:43.729Z,102378.20
2023-02-11T12:39:34.311Z,102386.92
2023-02-11T12:42:57.653Z,102384.59
2023-02-11T12:45:49.694Z,102387.41
2023-02-11T12:48:27.807Z,102387.00
2023-02-11T12:51:09.405Z,102379.16
2023-02-11T12:53:56.928Z,102390.19
2023-02-11T12:56:38.779Z,102385.77
2023-02-11T12:59:14.365Z,102383.23
2023-02-11T13:01:44.681Z,102378.59
2023-02-11T13:04:33.476Z,102369.18
2023-02-11T13:07:05.572Z,102372.36
2023-02-11T13:09:51.338Z,102366.70
2023-02-11T13:12:36.837Z,102370.23
2023-02-11T13:15:08.032Z,102371.04
2023-02-11T13:17:50.053Z,102374.75
2023-02-11T13:20:40.436Z,102379.05
2023-02-11T13:23:34.847Z,102369.49
2023-02-11T13:26:24.666Z,102366.48
2023-02-11T13:29:15.946Z,102370.92
2023-02-11T13:31:43.008Z,102369.09
2023-02-11T13:34:45.008Z,102378.98
2023-02-11T13:37:33.606Z,102385.61
2023-02-11T13:40:02.664Z,102386.35
2023-02-11T13:42:30.802Z,102390.26
2023-02-11T13:44:57.844Z,102390.61
2023-02-11T13:47:34.965Z,102386.86
2023-02-11T13:50:06.339Z,102389.63
2023-02-11T13:52:37.689Z,102390.54
2023-02-11T13:55:24.162Z,102388.59
2023-02-11T13:58:29.361Z,102387.54
2023-02-11T14:00:56.808Z,102390.23
2023-02-11T14:03:48.654Z,102384.83
2023-02-11T14:06:39.523Z,102392.06
2023-02-11T14:09:36.614Z,102392.42
2023-02-11T14:12:26.138Z,102394.71
2023-02-11T14:15:25.015Z,102393.49
2023-02-11T14:17:52.590Z,102393.14
2023-02-11T14:20:36.464Z,102384.08
2023-02-11T14:23:04.799Z,102400.69
2023-02-11T14:25:32.100Z,102401.98
2023-02-11T14:28:23.349Z,102401.83
2023-02-11T14:31:13.016Z,102392.45
2023-02-11T14:33:59.324Z,102386.92
2023-02-11T14:36:49.951Z,102399.25
2023-02-11T14:39:28.296Z,102404.25
2023-02-11T14:41:55.753Z,102410.41
2023-02-11T14:44:27.080Z,102419.66
2023-02-11T14:46:55.167Z,102411.64
2023-02-11T14:49:37.269Z,102408.11
2023-02-11T14:52:31.889Z,102415.00
2023-02-11T14:55:17.690Z,102414.98
2023-02-11T14:57:45.713Z,102413.02
2023-02-11T15:00:23.121Z,102419.85
2023-02-11T15:02:50.044Z,102424.61
2023-02-11T15:05:22.644Z,102425.31
2023-02-11T15:07:56.632Z,102426.17
2023-02-11T15:10:41.695Z,102441.95
2023-02-11T15:13:14.825Z,102437.56
2023-02-11T15:15:41.670Z,102442.23
2023-02-11T15:18:10.391Z,102447.78
2023-02-11T15:20:37.163Z,102454.16
2023-02-11T15:23:09.252Z,102451.37
2023-02-11T15:25:43.464Z,102457.46
2023-02-11T15:28:26.532Z,102458.39
2023-02-11T15:31:13.519Z,102458.06
2023-02-11T15:33:40.568Z,102463.48
2023-02-11T15:36:11.233Z,102465.08
2023-02-11T15:38:38.190Z,102473.08
2023-02-11T15:41:07.560Z,102464.36
2023-02-11T15:44:03.586Z,102461.83
2023-02-11T15:46:38.497Z,102459.38
2023-02-11T15:49:06.472Z,102469.02
2023-02-11T15:51:39.954Z,102457.81
2023-02-11T15:54:20.064Z,102461.77
2023-02-11T15:56:50.854Z,102457.74
2023-02-11T15:59:25.858Z,102450.23
2023-02-11T16:01:54.495Z,102449.42
2023-02-11T16:04:26.545Z,102456.48
2023-02-11T16:06:54.721Z,102463.67
2023-02-11T16:09:36.273Z,102464.24
2023-02-11T16:12:30.054Z,102456.65
2023-02-11T16:14:59.861Z,102452.76
2023-02-11T16:17:29.450Z,102450.27
2023-02-11T16:19:56.421Z,102453.17
2023-02-11T16:22:27.659Z,102454.60
2023-02-11T16:24:56.940Z,102456.27
2023-02-11T16:27:30.529Z,102464.77
2023-02-11T16:29:58.445Z,102461.21
2023-02-11T16:32:27.960Z,102457.33
2023-02-11T16:34:57.898Z,102463.71
2023-02-11T16:37:25.837Z,102460.25
2023-02-11T16:39:57.065Z,102459.27
2023-02-11T16:42:24.391Z,102460.69
2023-02-11T16:44:51.337Z,102455.52
2023-02-11T16:47:26.532Z,102466.35
2023-02-11T16:49:54.312Z,102469.51
2023-02-11T16:52:21.911Z,102474.34
2023-02-11T16:54:48.968Z,102468.86
2023-02-11T16:57:21.283Z,102481.75
2023-02-11T16:59:48.775Z,102483.66
2023-02-11T17:02:35.032Z,102475.05
2023-02-11T17:05:04.572Z,102479.17
2023-02-11T17:07:31.957Z,102474.04
2023-02-11T17:09:58.963Z,102481.83
2023-02-11T17:12:26.258Z,102484.54
2023-02-11T17:14:53.961Z,102488.55
2023-02-11T17:17:23.496Z,102490.38
2023-02-11T17:19:51.088Z,102490.39
2023-02-11T17:22:18.691Z,102494.48
2023-02-11T17:24:46.093Z,102495.45
2023-02-11T17:27:13.682Z,102502.00
2023-02-11T17:29:40.878Z,102508.27
2023-02-11T17:32:07.734Z,102509.52
2023-02-11T17:34:34.750Z,102513.61
2023-02-11T17:37:08.572Z,102517.54
2023-02-11T17:39:36.527Z,102523.56
2023-02-11T17:42:04.427Z,102520.74
2023-02-11T17:44:31.059Z,102527.48
2023-02-11T17:46:58.007Z,102527.80
2023-02-11T17:49:25.152Z,102529.83
2023-02-11T17:51:52.169Z,102532.28
2023-02-11T17:54:20.111Z,102531.80
2023-02-11T17:56:49.283Z,102529.05
2023-02-11T17:59:17.228Z,102527.88
2023-02-11T18:01:43.829Z,102532.34
2023-02-11T18:04:13.644Z,102538.39
2023-02-11T18:06:40.883Z,102541.78
2023-02-11T18:09:07.948Z,102545.80
2023-02-11T18:11:37.559Z,102539.17
2023-02-11T18:14:07.627Z,102540.35
2023-02-11T18:16:36.615Z,102542.77
2023-02-11T18:19:03.703Z,102551.64
2023-02-11T18:21:30.680Z,102559.83
2023-02-11T18:23:57.668Z,102563.77
2023-02-11T18:26:28.141Z,102564.92
2023-02-11T18:28:57.634Z,102561.89
2023-02-11T18:31:25.785Z,102560.87
2023-02-11T18:33:53.210Z,102564.02
2023-02-11T18:36:21.035Z,102567.60
2023-02-11T18:38:47.926Z,102568.77
2023-02-11T18:41:15.215Z,102572.57
2023-02-11T18:43:43.077Z,102575.10
2023-02-11T18:46:11.939Z,102577.64
2023-02-11T18:48:38.824Z,102582.34
2023-02-11T18:51:14.670Z,102584.55
2023-02-11T18:53:42.145Z,102583.06
2023-02-11T18:56:14.260Z,102577.50
2023-02-11T18:58:41.007Z,102581.75
2023-02-11T19:01:14.996Z,102575.63
2023-02-11T19:03:42.156Z,102579.98
2023-02-11T19:06:14.662Z,102578.83
2023-02-11T19:08:41.657Z,102577.77
2023-02-11T19:11:08.786Z,102578.75
2023-02-11T19:13:35.252Z,102580.05
2023-02-11T19:16:07.751Z,102581.73
2023-02-11T19:18:36.398Z,102591.35
2023-02-11T19:21:10.563Z,102590.42
2023-02-11T19:23:37.650Z,102592.62
2023-02-11T19:26:06.452Z,102603.94
2023-02-11T19:28:34.109Z,102604.44
2023-02-11T19:31:09.673Z,102599.98
2023-02-11T19:33:36.861Z,102604.17
2023-02-11T19:36:07.730Z,102605.75
2023-02-11T19:38:35.638Z,102605.36
2023-02-11T19:41:02.766Z,102613.98
2023-02-11T19:43:29.355Z,102623.30
2023-02-11T19:45:57.390Z,102628.67
2023-02-11T19:48:24.873Z,102624.42
2023-02-11T19:50:51.654Z,102630.22
2023-02-11T19:53:18.693Z,102629.14
2023-02-11T19:55:45.525Z,102628.77
2023-02-11T19:58:12.430Z,102628.91
2023-02-11T20:00:39.379Z,102641.76
2023-02-11T20:03:05.914Z,102637.02
2023-02-11T20:05:32.661Z,102639.34
2023-02-11T20:07:59.617Z,102635.13
2023-02-11T20:10:26.717Z,102631.68
2023-02-11T20:12:53.390Z,102640.54
2023-02-11T20:15:20.142Z,102644.68
2023-02-11T20:17:47.151Z,102645.93
2023-02-11T20:20:14.290Z,102649.70
2023-02-11T20:22:40.920Z,102658.65
2023-02-11T20:25:07.900Z,102662.05
2023-02-11T20:27:34.636Z,102651.30
2023-02-11T20:30:01.793Z,102649.52
2023-02-11T20:32:30.593Z,102639.15
2023-02-11T20:34:58.881Z,102638.10
2023-02-11T20:37:25.542Z,102641.38
2023-02-11T20:39:52.394Z,102646.30
2023-02-11T20:42:19.306Z,102648.20
2023-02-11T20:44:46.192Z,102654.23
2023-02-11T20:47:13.474Z,102653.38
2023-02-11T20:49:40.040Z,102659.16
2023-02-11T20:52:08.194Z,102660.89
2023-02-11T20:54:35.038Z,102662.42
2023-02-11T20:57:02.423Z,102672.08
2023-02-11T20:59:29.155Z,102677.08
2023-02-11T21:01:57.160Z,102674.74
2023-02-11T21:04:29.423Z,102679.59
2023-02-11T21:06:58.513Z,102687.21
2023-02-11T21:09:27.618Z,102687.83
2023-02-11T21:11:55.237Z,102690.23
2023-02-11T21:14:23.968Z,102694.06
2023-02-11T21:16:51.075Z,102696.59
2023-02-11T21:19:18.278Z,102697.66
2023-02-11T21:21:45.451Z,102697.34
2023-02-11T21:24:12.675Z,102699.34
2023-02-11T21:26:39.461Z,102703.86
2023-02-11T21:29:07.372Z,102702.52
2023-02-11T21:31:34.950Z,102706.93
2023-02-11T21:34:02.447Z,102707.13
2023-02-11T21:36:29.985Z,102715.89
2023-02-11T21:38:56.958Z,102722.72
2023-02-11T21:41:24.764Z,102724.95
2023-02-11T21:43:51.870Z,102725.23
2023-02-11T21:46:19.007Z,102728.39
2023-02-11T21:48:45.714Z,102735.77
2023-02-11T21:51:20.578Z,102733.73
2023-02-11T21:53:47.334Z,102736.45
2023-02-11T21:56:16.621Z,102737.80
2023-02-11T21:58:43.820Z,102739.06
2023-02-11T22:01:16.710Z,102742.82
2023-02-11T22:03:44.205Z,102744.16
2023-02-11T22:06:13.276Z,102749.88
2023-02-11T22:08:40.224Z,102748.89
2023-02-11T22:11:10.044Z,102752.14
2023-02-11T22:13:37.275Z,102757.14
2023-02-11T22:16:06.229Z,102757.25
2023-02-11T22:18:33.060Z,102761.81
2023-02-11T22:21:01.744Z,102764.20
2023-02-11T22:23:29.415Z,102767.52
2023-02-11T22:25:57.337Z,102767.53
2023-02-11T22:28:27.624Z,102768.66
2023-02-11T22:30:57.988Z,102771.38
2023-02-11T22:33:26.371Z,102776.29
2023-02-11T22:36:05.562Z,102776.40
2023-02-11T22:38:33.229Z,102778.52
2023-02-11T22:41:05.111Z,102779.97
2023-02-11T22:43:31.750Z,102779.50
2023-02-11T22:46:03.154Z,102776.23
2023-02-11T22:48:30.089Z,102775.20
2023-02-11T22:50:56.920Z,102778.60
2023-02-11T22:53:27.314Z,102779.88
2023-02-11T22:55:54.700Z,102783.37
2023-02-11T22:58:22.254Z,102790.61
2023-02-11T23:00:49.207Z,102787.85
2023-02-11T23:03:16.012Z,102793.52
2023-02-11T23:05:42.886Z,102795.27
2023-02-11T23:08:10.905Z,102796.25
2023-02-11T23:10:39.219Z,102798.91
2023-02-11T23:13:07.510Z,102804.67
2023-02-11T23:15:34.528Z,102802.34
2023-02-11T23:18:01.664Z,102809.30
2023-02-11T23:20:28.874Z,102814.35
2023-02-11T23:22:55.645Z,102818.35
2023-02-11T23:25:22.241Z,102815.56
2023-02-11T23:27:48.992Z,102816.19
2023-02-11T23:30:16.166Z,102815.77
2023-02-11T23:32:43.152Z,102818.13
2023-02-11T23:35:10.129Z,102821.85
2023-02-11T23:37:37.053Z,102820.63
2023-02-11T23:40:04.289Z,102821.76
2023-02-11T23:42:31.210Z,102825.34
2023-02-11T23:44:58.101Z,102826.23
2023-02-11T23:47:25.055Z,102828.58
2023-02-11T23:49:51.790Z,102827.81
2023-02-11T23:52:18.711Z,102831.86
2023-02-11T23:54:48.135Z,102830.87
2023-02-11T23:57:15.129Z,102833.90
2023-02-11T23:59:43.166Z,102833.15
